createdAt,value
2018-09-11T00:00:29.580Z,15.58
2018-09-11T00:02:58.059Z,15.52
2018-09-11T00:05:26.479Z,15.46
2018-09-11T00:07:54.988Z,15.44
2018-09-11T00:10:24.023Z,15.44
2018-09-11T00:12:52.805Z,15.46
2018-09-11T00:15:21.225Z,15.49
2018-09-11T00:17:49.737Z,15.45
2018-09-11T00:20:18.146Z,15.47
2018-09-11T00:22:47.609Z,15.45
2018-09-11T00:25:16.178Z,15.45
2018-09-11T00:27:44.675Z,15.46
2018-09-11T00:30:13.161Z,15.45
2018-09-11T00:32:41.705Z,15.40
2018-09-11T00:35:10.209Z,15.39
2018-09-11T00:37:38.731Z,15.36
2018-09-11T00:40:07.198Z,15.30
2018-09-11T00:42:35.666Z,15.27
2018-09-11T00:45:04.229Z,15.22
2018-09-11T00:47:32.746Z,15.27
2018-09-11T00:50:01.186Z,15.22
2018-09-11T00:52:29.708Z,15.18
2018-09-11T00:54:58.375Z,15.11
2018-09-11T00:57:26.910Z,15.03
2018-09-11T00:59:55.369Z,15.00
2018-09-11T01:02:23.833Z,14.96
2018-09-11T01:04:52.481Z,14.94
2018-09-11T01:07:21.162Z,14.89
2018-09-11T01:09:49.818Z,14.85
2018-09-11T01:12:18.242Z,14.86
2018-09-11T01:14:46.748Z,14.84
2018-09-11T01:17:15.446Z,14.80
2018-09-11T01:19:43.949Z,14.76
2018-09-11T01:22:12.385Z,14.71
2018-09-11T01:24:40.902Z,14.66
2018-09-11T01:27:09.325Z,14.61
2018-09-11T01:29:37.829Z,14.55
2018-09-11T01:32:06.293Z,14.53
2018-09-11T01:34:34.849Z,14.54
2018-09-11T01:37:03.370Z,14.51
2018-09-11T01:39:31.869Z,14.43
2018-09-11T01:42:00.343Z,14.44
2018-09-11T01:44:28.836Z,14.40
2018-09-11T01:46:57.313Z,14.35
2018-09-11T01:49:25.787Z,14.34
2018-09-11T01:51:54.409Z,14.35
2018-09-11T01:54:22.898Z,14.34
2018-09-11T01:56:51.528Z,14.33
2018-09-11T01:59:20.026Z,14.29
2018-09-11T02:01:48.503Z,14.28
2018-09-11T02:04:17.249Z,14.26
2018-09-11T02:06:45.694Z,14.25
2018-09-11T02:09:14.181Z,14.24
2018-09-11T02:11:42.654Z,14.27
2018-09-11T02:14:11.129Z,14.31
2018-09-11T02:16:39.581Z,14.33
2018-09-11T02:19:08.122Z,14.32
2018-09-11T02:21:36.569Z,14.28
2018-09-11T02:24:05.045Z,14.23
2018-09-11T02:26:33.553Z,14.14
2018-09-11T02:29:02.006Z,14.08
2018-09-11T02:31:30.464Z,14.04
2018-09-11T02:33:58.988Z,13.96
2018-09-11T02:36:27.441Z,13.89
2018-09-11T02:38:55.991Z,13.79
2018-09-11T02:41:24.390Z,13.75
2018-09-11T02:43:53.334Z,13.69
2018-09-11T02:46:21.758Z,13.62
2018-09-11T02:48:50.288Z,13.62
2018-09-11T02:51:18.716Z,13.61
2018-09-11T02:53:47.241Z,13.60
2018-09-11T02:56:15.849Z,13.60
2018-09-11T02:58:44.307Z,13.54
2018-09-11T03:01:12.782Z,13.52
2018-09-11T03:03:41.246Z,13.58
2018-09-11T03:06:09.793Z,13.62
2018-09-11T03:08:38.226Z,13.58
2018-09-11T03:11:06.773Z,13.59
2018-09-11T03:13:35.257Z,13.60
2018-09-11T03:16:03.798Z,13.57
2018-09-11T03:18:32.474Z,13.57
2018-09-11T03:21:00.926Z,13.54
2018-09-11T03:23:30.457Z,13.56
2018-09-11T03:25:59.046Z,13.50
2018-09-11T03:28:27.513Z,13.47
2018-09-11T03:30:55.977Z,13.44
2018-09-11T03:33:24.432Z,13.38
2018-09-11T03:35:53.154Z,13.34
2018-09-11T03:38:21.656Z,13.28
2018-09-11T03:40:50.188Z,13.26
2018-09-11T03:43:18.754Z,13.26
2018-09-11T03:45:48.121Z,13.29
2018-09-11T03:48:18.845Z,13.22
2018-09-11T03:50:48.745Z,13.14
2018-09-11T03:53:17.646Z,13.14
2018-09-11T03:55:46.605Z,13.10
2018-09-11T03:58:15.395Z,13.04
2018-09-11T04:00:43.909Z,13.00
2018-09-11T04:03:12.553Z,13.03
2018-09-11T04:05:40.989Z,12.97
2018-09-11T04:08:09.438Z,13.01
2018-09-11T04:10:37.955Z,12.96
2018-09-11T04:13:06.453Z,12.95
2018-09-11T04:15:34.902Z,12.95
2018-09-11T04:18:03.430Z,12.93
2018-09-11T04:20:31.877Z,12.94
2018-09-11T04:23:00.417Z,12.95
2018-09-11T04:25:28.912Z,12.93
2018-09-11T04:27:57.602Z,12.91
2018-09-11T04:30:26.081Z,12.90
2018-09-11T04:32:55.601Z,12.90
2018-09-11T04:35:23.990Z,12.85
2018-09-11T04:37:52.590Z,12.83
2018-09-11T04:40:21.090Z,12.81
2018-09-11T04:42:49.945Z,12.80
2018-09-11T04:45:18.537Z,12.78
2018-09-11T04:47:48.062Z,12.80
2018-09-11T04:50:17.770Z,12.78
2018-09-11T04:52:47.252Z,12.76
2018-09-11T04:55:15.726Z,12.72
2018-09-11T04:57:44.215Z,12.74
2018-09-11T05:00:12.791Z,12.67
2018-09-11T05:02:41.266Z,12.60
2018-09-11T05:05:09.735Z,12.59
2018-09-11T05:07:38.285Z,12.65
2018-09-11T05:10:07.226Z,12.68
2018-09-11T05:12:35.817Z,12.73
2018-09-11T05:15:04.325Z,12.75
2018-09-11T05:17:32.798Z,12.75
2018-09-11T05:20:01.226Z,12.77
2018-09-11T05:22:29.740Z,12.79
2018-09-11T05:24:58.191Z,12.84
2018-09-11T05:27:26.718Z,12.92
2018-09-11T05:29:55.153Z,12.95
2018-09-11T05:32:23.644Z,13.02
2018-09-11T05:34:52.421Z,13.12
2018-09-11T05:37:20.904Z,13.16
2018-09-11T05:39:49.430Z,13.23
2018-09-11T05:42:17.958Z,13.35
2018-09-11T05:44:46.373Z,13.42
2018-09-11T05:47:14.916Z,13.49
2018-09-11T05:49:43.495Z,13.58
2018-09-11T05:52:11.913Z,13.71
2018-09-11T05:54:40.447Z,13.86
2018-09-11T05:57:08.857Z,13.91
2018-09-11T05:59:37.262Z,13.97
2018-09-11T06:02:05.802Z,14.04
2018-09-11T06:04:34.261Z,14.15
2018-09-11T06:07:02.743Z,14.27
2018-09-11T06:09:31.189Z,14.37
2018-09-11T06:11:59.737Z,14.51
2018-09-11T06:14:28.166Z,14.56
2018-09-11T06:16:56.677Z,14.63
2018-09-11T06:19:25.113Z,14.69
2018-09-11T06:21:53.932Z,14.83
2018-09-11T06:24:22.390Z,14.91
2018-09-11T06:26:50.930Z,15.02
2018-09-11T06:29:19.485Z,15.17
2018-09-11T06:31:48.139Z,15.29
2018-09-11T06:34:16.726Z,15.39
2018-09-11T06:36:45.302Z,15.48
2018-09-11T06:39:13.849Z,15.58
2018-09-11T06:41:42.281Z,15.62
2018-09-11T06:44:10.793Z,15.72
2018-09-11T06:46:39.305Z,15.81
2018-09-11T06:49:07.710Z,15.90
2018-09-11T06:51:36.182Z,15.98
2018-09-11T06:54:04.917Z,16.08
2018-09-11T06:56:33.361Z,16.23
2018-09-11T06:59:01.936Z,16.35
2018-09-11T07:01:30.318Z,16.46
2018-09-11T07:03:58.829Z,16.61
2018-09-11T07:06:27.492Z,16.73
2018-09-11T07:08:56.278Z,16.78
2018-09-11T07:11:24.781Z,16.87
2018-09-11T07:13:53.469Z,17.03
2018-09-11T07:16:21.977Z,17.10
2018-09-11T07:18:50.476Z,17.18
2018-09-11T07:21:19.093Z,17.25
2018-09-11T07:23:47.549Z,17.40
2018-09-11T07:26:16.937Z,17.56
2018-09-11T07:28:45.382Z,17.74
2018-09-11T07:31:13.858Z,17.87
2018-09-11T07:33:42.513Z,17.93
2018-09-11T07:36:11.053Z,18.13
2018-09-11T07:38:39.487Z,18.26
2018-09-11T07:41:08.797Z,18.42
2018-09-11T07:43:37.281Z,18.58
2018-09-11T07:46:05.782Z,18.72
2018-09-11T07:48:34.519Z,18.82
2018-09-11T07:51:02.937Z,18.90
2018-09-11T07:53:31.453Z,19.03
2018-09-11T07:55:59.898Z,19.23
2018-09-11T07:58:28.401Z,19.42
2018-09-11T08:00:56.879Z,19.58
2018-09-11T08:03:25.366Z,19.74
2018-09-11T08:05:54.261Z,19.93
2018-09-11T08:08:22.717Z,19.96
2018-09-11T08:10:51.250Z,20.14
2018-09-11T08:13:19.666Z,20.28
2018-09-11T08:15:48.654Z,20.41
2018-09-11T08:18:17.339Z,20.49
2018-09-11T08:20:46.007Z,20.64
2018-09-11T08:23:14.489Z,20.77
2018-09-11T08:25:42.950Z,20.91
2018-09-11T08:28:11.406Z,21.04
2018-09-11T08:30:39.915Z,21.17
2018-09-11T08:33:08.404Z,21.34
2018-09-11T08:35:36.821Z,21.48
2018-09-11T08:38:05.393Z,21.58
2018-09-11T08:40:34.030Z,21.73
2018-09-11T08:43:02.538Z,21.96
2018-09-11T08:45:30.970Z,22.02
2018-09-11T08:47:59.434Z,22.19
2018-09-11T08:50:27.986Z,22.37
2018-09-11T08:52:56.399Z,22.56
2018-09-11T08:55:24.903Z,22.75
2018-09-11T08:57:53.583Z,22.92
2018-09-11T09:00:22.046Z,23.14
2018-09-11T09:02:50.555Z,23.35
2018-09-11T09:05:19.021Z,23.46
2018-09-11T09:07:47.554Z,23.59
2018-09-11T09:10:16.158Z,23.70
2018-09-11T09:12:44.795Z,23.78
2018-09-11T09:15:13.229Z,23.97
2018-09-11T09:17:41.714Z,24.05
2018-09-11T09:20:10.205Z,24.24
2018-09-11T09:22:38.618Z,24.53
2018-09-11T09:25:07.233Z,24.59
2018-09-11T09:27:35.763Z,24.77
2018-09-11T09:30:04.174Z,25.11
2018-09-11T09:32:32.610Z,25.31
2018-09-11T09:35:01.168Z,25.56
2018-09-11T09:37:29.654Z,25.95
2018-09-11T09:39:58.170Z,26.68
2018-09-11T09:42:26.666Z,27.42
2018-09-11T09:44:55.218Z,28.20
2018-09-11T09:47:23.705Z,29.10
2018-09-11T09:49:52.387Z,29.36
2018-09-11T09:52:20.870Z,29.73
2018-09-11T09:54:49.393Z,30.18
2018-09-11T09:57:17.977Z,30.22
2018-09-11T09:59:46.487Z,30.77
2018-09-11T10:02:20.349Z,31.01
2018-09-11T10:04:48.943Z,31.40
2018-09-11T10:07:17.997Z,31.74
2018-09-11T10:09:46.500Z,31.97
2018-09-11T10:12:15.023Z,32.47
2018-09-11T10:14:43.502Z,32.64
2018-09-11T10:17:12.309Z,32.88
2018-09-11T10:19:41.028Z,32.95
2018-09-11T10:22:09.534Z,33.68
2018-09-11T10:24:38.014Z,33.29
2018-09-11T10:27:06.523Z,33.49
2018-09-11T10:29:35.089Z,33.33
2018-09-11T10:32:03.562Z,33.49
2018-09-11T10:34:32.211Z,33.67
2018-09-11T10:37:00.790Z,34.31
2018-09-11T10:39:29.338Z,34.09
2018-09-11T10:41:57.762Z,34.31
2018-09-11T10:44:26.531Z,34.94
2018-09-11T10:46:55.094Z,34.67
2018-09-11T10:49:23.521Z,35.57
2018-09-11T10:51:52.272Z,35.54
2018-09-11T10:54:20.842Z,35.72
2018-09-11T10:56:49.506Z,37.04
2018-09-11T10:59:18.193Z,37.57
2018-09-11T11:01:46.650Z,37.66
2018-09-11T11:04:15.185Z,37.42
2018-09-11T11:06:43.599Z,36.70
2018-09-11T11:09:12.171Z,37.25
2018-09-11T11:11:40.673Z,38.04
2018-09-11T11:14:09.534Z,38.22
2018-09-11T11:16:37.946Z,38.78
2018-09-11T11:19:06.562Z,39.23
2018-09-11T11:21:35.037Z,39.74
2018-09-11T11:24:03.501Z,39.20
2018-09-11T11:26:31.989Z,39.74
2018-09-11T11:29:00.445Z,40.05
2018-09-11T11:31:28.933Z,40.14
2018-09-11T11:33:57.409Z,40.51
2018-09-11T11:36:25.988Z,41.22
2018-09-11T11:38:54.870Z,42.07
2018-09-11T11:41:23.303Z,42.37
2018-09-11T11:43:52.417Z,41.69
2018-09-11T11:46:20.920Z,41.96
2018-09-11T11:48:49.358Z,41.28
2018-09-11T11:51:17.893Z,42.05
2018-09-11T11:53:46.329Z,42.57
2018-09-11T11:56:14.805Z,42.68
2018-09-11T11:58:43.265Z,41.97
2018-09-11T12:01:11.889Z,41.87
2018-09-11T12:03:40.326Z,42.86
2018-09-11T12:06:08.834Z,42.57
2018-09-11T12:08:37.282Z,43.03
2018-09-11T12:11:05.817Z,42.91
2018-09-11T12:13:34.258Z,43.16
2018-09-11T12:16:02.772Z,43.33
2018-09-11T12:18:31.603Z,43.66
2018-09-11T12:21:00.121Z,44.41
2018-09-11T12:23:28.585Z,43.81
2018-09-11T12:25:57.101Z,45.02
2018-09-11T12:28:25.545Z,44.49
2018-09-11T12:30:54.476Z,45.43
2018-09-11T12:33:22.925Z,44.80
2018-09-11T12:35:52.013Z,45.71
2018-09-11T12:38:20.589Z,45.71
2018-09-11T12:40:49.098Z,46.70
2018-09-11T12:43:17.906Z,46.60
2018-09-11T12:45:46.444Z,45.93
2018-09-11T12:48:15.143Z,45.95
2018-09-11T12:50:43.299Z,47.22
2018-09-11T12:53:11.817Z,46.59
2018-09-11T12:55:40.282Z,46.91
2018-09-11T12:58:09.106Z,47.82
2018-09-11T13:00:37.722Z,48.43
2018-09-11T13:03:06.211Z,48.31
2018-09-11T13:05:34.605Z,48.70
2018-09-11T13:08:03.109Z,48.03
2018-09-11T13:10:31.566Z,48.84
2018-09-11T13:13:00.071Z,48.69
2018-09-11T13:15:28.537Z,46.77
2018-09-11T13:17:57.022Z,47.69
2018-09-11T13:20:25.500Z,47.69
2018-09-11T13:22:54.363Z,48.01
2018-09-11T13:25:22.810Z,48.08
2018-09-11T13:27:51.280Z,47.46
2018-09-11T13:30:19.735Z,47.01
2018-09-11T13:32:48.225Z,46.33
2018-09-11T13:35:16.841Z,47.01
2018-09-11T13:37:45.518Z,48.05
2018-09-11T13:40:13.977Z,47.97
2018-09-11T13:42:42.485Z,46.60
2018-09-11T13:45:10.958Z,47.89
2018-09-11T13:47:39.455Z,47.67
2018-09-11T13:50:08.025Z,47.42
2018-09-11T13:52:36.521Z,48.67
2018-09-11T13:55:05.290Z,47.65
2018-09-11T13:57:33.793Z,48.42
2018-09-11T14:00:02.242Z,48.69
2018-09-11T14:02:30.790Z,48.83
2018-09-11T14:04:59.197Z,47.21
2018-09-11T14:07:27.743Z,45.79
2018-09-11T14:09:56.178Z,46.64
2018-09-11T14:12:24.677Z,47.37
2018-09-11T14:14:53.629Z,47.70
2018-09-11T14:17:22.099Z,47.55
2018-09-11T14:19:50.505Z,46.85
2018-09-11T14:22:19.278Z,47.64
2018-09-11T14:24:47.766Z,47.52
2018-09-11T14:27:16.394Z,47.92
2018-09-11T14:29:44.854Z,47.98
2018-09-11T14:32:13.335Z,49.07
2018-09-11T14:34:41.833Z,48.63
2018-09-11T14:37:10.286Z,48.45
2018-09-11T14:39:38.782Z,48.12
2018-09-11T14:42:07.249Z,47.95
2018-09-11T14:44:35.830Z,47.86
2018-09-11T14:47:04.362Z,46.98
2018-09-11T14:49:32.853Z,47.25
2018-09-11T14:52:01.281Z,47.40
2018-09-11T14:54:29.817Z,46.23
2018-09-11T14:56:58.277Z,46.37
2018-09-11T14:59:26.918Z,46.74
2018-09-11T15:01:55.523Z,47.17
2018-09-11T15:04:24.039Z,48.08
2018-09-11T15:06:52.782Z,47.19
2018-09-11T15:09:21.309Z,47.24
2018-09-11T15:11:50.026Z,47.60
2018-09-11T15:14:18.638Z,48.08
2018-09-11T15:16:47.148Z,46.96
2018-09-11T15:19:16.009Z,47.04
2018-09-11T15:21:44.506Z,47.23
2018-09-11T15:24:13.019Z,46.34
2018-09-11T15:26:41.487Z,45.71
2018-09-11T15:29:10.069Z,46.34
2018-09-11T15:31:38.530Z,47.36
2018-09-11T15:34:07.080Z,47.03
2018-09-11T15:36:35.503Z,46.87
2018-09-11T15:39:04.268Z,46.73
2018-09-11T15:41:32.754Z,47.40
2018-09-11T15:44:01.323Z,47.47
2018-09-11T15:46:29.750Z,48.27
2018-09-11T15:48:58.270Z,47.83
2018-09-11T15:51:26.687Z,46.66
2018-09-11T15:53:55.725Z,47.01
2018-09-11T15:56:24.209Z,46.35
2018-09-11T15:58:53.059Z,46.21
2018-09-11T16:01:21.630Z,46.17
2018-09-11T16:03:50.137Z,46.83
2018-09-11T16:06:18.841Z,46.48
2018-09-11T16:08:47.282Z,47.16
2018-09-11T16:11:17.768Z,46.43
2018-09-11T16:13:46.173Z,45.43
2018-09-11T16:16:14.705Z,46.36
2018-09-11T16:18:43.181Z,46.26
2018-09-11T16:21:11.815Z,46.03
2018-09-11T16:23:40.325Z,45.06
2018-09-11T16:26:08.797Z,44.42
2018-09-11T16:28:37.341Z,44.18
2018-09-11T16:31:05.999Z,44.34
2018-09-11T16:33:34.477Z,44.54
2018-09-11T16:36:03.215Z,45.06
2018-09-11T16:38:31.738Z,45.87
2018-09-11T16:41:00.210Z,44.83
2018-09-11T16:43:28.695Z,44.71
2018-09-11T16:45:57.171Z,43.96
2018-09-11T16:48:25.645Z,43.22
2018-09-11T16:50:54.233Z,41.32
2018-09-11T16:53:22.752Z,37.77
2018-09-11T16:55:51.315Z,35.39
2018-09-11T16:58:19.881Z,33.38
2018-09-11T17:00:48.406Z,32.49
2018-09-11T17:03:16.987Z,31.68
2018-09-11T17:05:45.574Z,31.00
2018-09-11T17:08:14.010Z,30.49
2018-09-11T17:10:42.517Z,30.11
2018-09-11T17:13:10.985Z,29.77
2018-09-11T17:15:39.510Z,29.50
2018-09-11T17:18:07.934Z,29.28
2018-09-11T17:20:36.437Z,29.06
2018-09-11T17:23:04.909Z,28.84
2018-09-11T17:25:33.512Z,28.59
2018-09-11T17:28:01.997Z,28.33
2018-09-11T17:30:30.485Z,28.17
2018-09-11T17:32:58.941Z,28.13
2018-09-11T17:35:27.490Z,27.93
2018-09-11T17:37:56.001Z,27.76
2018-09-11T17:40:24.522Z,27.50
2018-09-11T17:42:53.348Z,27.26
2018-09-11T17:45:21.741Z,27.00
2018-09-11T17:47:52.306Z,26.71
2018-09-11T17:50:20.765Z,26.44
2018-09-11T17:52:49.250Z,26.18
2018-09-11T17:55:17.932Z,25.98
2018-09-11T17:57:46.495Z,25.79
2018-09-11T18:00:14.967Z,25.58
2018-09-11T18:02:43.460Z,25.37
2018-09-11T18:05:12.041Z,25.19
2018-09-11T18:07:40.658Z,25.13
2018-09-11T18:10:09.126Z,25.04
2018-09-11T18:12:37.624Z,24.90
2018-09-11T18:15:06.196Z,24.74
2018-09-11T18:17:34.644Z,24.59
2018-09-11T18:20:03.168Z,24.44
2018-09-11T18:22:31.645Z,24.31
2018-09-11T18:25:00.165Z,24.18
2018-09-11T18:27:28.830Z,24.03
2018-09-11T18:29:57.735Z,23.93
2018-09-11T18:32:26.193Z,23.80
2018-09-11T18:34:55.138Z,23.78
2018-09-11T18:37:24.561Z,23.64
2018-09-11T18:39:53.232Z,23.53
2018-09-11T18:42:21.674Z,23.45
2018-09-11T18:44:50.154Z,23.32
2018-09-11T18:47:19.009Z,23.22
2018-09-11T18:49:47.550Z,23.10
2018-09-11T18:52:16.152Z,22.96
2018-09-11T18:54:44.636Z,22.87
2018-09-11T18:57:13.130Z,22.77
2018-09-11T18:59:41.640Z,22.69
2018-09-11T19:02:10.125Z,22.63
2018-09-11T19:04:38.653Z,22.55
2018-09-11T19:07:07.117Z,22.46
2018-09-11T19:09:35.570Z,22.44
2018-09-11T19:12:04.142Z,22.41
2018-09-11T19:14:32.630Z,22.30
2018-09-11T19:17:02.194Z,22.28
2018-09-11T19:19:30.598Z,22.28
2018-09-11T19:21:59.094Z,22.33
2018-09-11T19:24:28.622Z,22.31
2018-09-11T19:26:57.177Z,22.23
2018-09-11T19:29:25.603Z,22.20
2018-09-11T19:31:54.321Z,22.17
2018-09-11T19:34:22.744Z,22.10
2018-09-11T19:36:51.274Z,22.01
2018-09-11T19:39:19.804Z,21.92
2018-09-11T19:41:48.254Z,21.78
2018-09-11T19:44:16.805Z,21.68
2018-09-11T19:46:45.322Z,21.56
2018-09-11T19:49:13.882Z,21.44
2018-09-11T19:51:42.290Z,21.36
2018-09-11T19:54:10.830Z,21.27
2018-09-11T19:56:39.303Z,21.17
2018-09-11T19:59:07.751Z,21.12
2018-09-11T20:01:36.366Z,21.03
2018-09-11T20:04:04.969Z,20.93
2018-09-11T20:06:33.513Z,20.90
2018-09-11T20:09:02.029Z,20.82
2018-09-11T20:11:30.456Z,20.78
2018-09-11T20:13:58.945Z,20.78
2018-09-11T20:16:27.411Z,20.78
2018-09-11T20:18:55.933Z,20.78
2018-09-11T20:21:24.414Z,20.73
2018-09-11T20:23:53.041Z,20.65
2018-09-11T20:26:21.460Z,20.58
2018-09-11T20:28:49.998Z,20.50
2018-09-11T20:31:18.503Z,20.36
2018-09-11T20:33:47.045Z,20.26
2018-09-11T20:36:15.766Z,20.15
2018-09-11T20:38:44.323Z,20.08
2018-09-11T20:41:12.737Z,20.00
2018-09-11T20:43:41.261Z,19.90
2018-09-11T20:46:09.784Z,19.83
2018-09-11T20:48:38.222Z,19.76
2018-09-11T20:51:06.729Z,19.66
2018-09-11T20:53:35.158Z,19.55
2018-09-11T20:56:03.805Z,19.47
2018-09-11T20:58:32.224Z,19.42
2018-09-11T21:01:00.762Z,19.38
2018-09-11T21:03:29.278Z,19.40
2018-09-11T21:05:57.817Z,19.38
2018-09-11T21:08:26.294Z,19.34
2018-09-11T21:10:55.010Z,19.23
2018-09-11T21:13:23.423Z,19.14
2018-09-11T21:15:52.079Z,19.09
2018-09-11T21:18:20.582Z,19.04
2018-09-11T21:20:49.093Z,19.12
2018-09-11T21:23:17.558Z,19.14
2018-09-11T21:25:46.053Z,19.12
2018-09-11T21:28:14.513Z,19.11
2018-09-11T21:30:43.190Z,19.03
2018-09-11T21:33:11.682Z,18.98
2018-09-11T21:35:40.377Z,18.92
2018-09-11T21:38:08.849Z,18.94
2018-09-11T21:40:37.385Z,18.90
2018-09-11T21:43:05.849Z,18.82
2018-09-11T21:45:34.319Z,18.77
2018-09-11T21:48:02.810Z,18.70
2018-09-11T21:50:31.385Z,18.64
2018-09-11T21:52:59.849Z,18.59
2018-09-11T21:55:28.342Z,18.54
2018-09-11T21:57:56.854Z,18.49
2018-09-11T22:00:25.397Z,18.48
2018-09-11T22:02:54.038Z,18.43
2018-09-11T22:05:22.502Z,18.36
2018-09-11T22:07:50.890Z,18.34
2018-09-11T22:10:19.429Z,18.32
2018-09-11T22:12:47.973Z,18.31
2018-09-11T22:15:16.473Z,18.23
2018-09-11T22:17:45.014Z,18.10
2018-09-11T22:20:13.480Z,18.00
2018-09-11T22:22:41.920Z,17.98
2018-09-11T22:25:10.429Z,17.95
2018-09-11T22:27:38.898Z,17.96
2018-09-11T22:30:07.587Z,17.93
2018-09-11T22:32:36.063Z,17.87
2018-09-11T22:35:04.601Z,17.80
2018-09-11T22:37:33.082Z,17.78
2018-09-11T22:40:01.562Z,17.72
2018-09-11T22:42:29.998Z,17.71
2018-09-11T22:44:58.466Z,17.75
2018-09-11T22:47:26.983Z,17.68
2018-09-11T22:49:56.448Z,17.62
2018-09-11T22:52:24.961Z,17.58
2018-09-11T22:54:54.282Z,17.56
2018-09-11T22:57:22.786Z,17.49
2018-09-11T22:59:51.205Z,17.44
2018-09-11T23:02:19.857Z,17.36
2018-09-11T23:04:48.322Z,17.28
2018-09-11T23:07:16.823Z,17.20
2018-09-11T23:09:45.243Z,17.12
2018-09-11T23:12:13.734Z,17.08
2018-09-11T23:14:42.192Z,17.00
2018-09-11T23:17:10.733Z,16.91
2018-09-11T23:19:39.194Z,16.86
2018-09-11T23:22:07.669Z,16.82
2018-09-11T23:24:36.134Z,16.81
2018-09-11T23:27:04.810Z,16.81
2018-09-11T23:29:33.293Z,16.81
2018-09-11T23:32:01.803Z,16.82
2018-09-11T23:34:30.248Z,16.79
2018-09-11T23:36:58.743Z,16.82
2018-09-11T23:39:27.134Z,16.80
2018-09-11T23:41:55.821Z,16.76
2018-09-11T23:44:24.305Z,16.69
2018-09-11T23:46:53.051Z,16.69
2018-09-11T23:49:21.541Z,16.67
2018-09-11T23:51:50.029Z,16.60
2018-09-11T23:54:18.789Z,16.55
2018-09-11T23:56:47.222Z,16.53
2018-09-11T23:59:15.684Z,16.52
